sensor_id;sensor_type;location;lat;lon;timestamp;P1;durP1;ratioP1;P2;durP2;ratioP2
9160;SDS011;4615;51.340;8.288;2023-10-09T00:00:56;19.77;;;13.82;;
9160;SDS011;4615;51.340;8.288;2023-10-09T00:03:28;20.03;;;13.63;;
9160;SDS011;4615;51.340;8.288;2023-10-09T00:05:54;18.55;;;12.80;;
9160;SDS011;4615;51.340;8.288;2023-10-09T00:08:21;19.00;;;13.00;;
9160;SDS011;4615;51.340;8.288;2023-10-09T00:10:51;20.70;;;13.07;;
9160;SDS011;4615;51.340;8.288;2023-10-09T00:13:19;17.15;;;12.90;;
9160;SDS011;4615;51.340;8.288;2023-10-09T00:15:46;20.65;;;13.38;;
9160;SDS011;4615;51.340;8.288;2023-10-09T00:18:18;20.70;;;13.55;;
9160;SDS011;4615;51.340;8.288;2023-10-09T00:20:54;18.98;;;13.13;;
9160;SDS011;4615;51.340;8.288;2023-10-09T00:23:26;18.83;;;13.18;;
9160;SDS011;4615;51.340;8.288;2023-10-09T00:25:52;17.60;;;12.65;;
9160;SDS011;4615;51.340;8.288;2023-10-09T00:28:34;17.80;;;13.27;;
9160;SDS011;4615;51.340;8.288;2023-10-09T00:31:00;19.13;;;12.75;;
9160;SDS011;4615;51.340;8.288;2023-10-09T00:33:31;18.67;;;13.32;;
9160;SDS011;4615;51.340;8.288;2023-10-09T00:36:02;18.55;;;12.63;;
9160;SDS011;4615;51.340;8.288;2023-10-09T00:38:34;19.17;;;13.63;;
9160;SDS011;4615;51.340;8.288;2023-10-09T00:41:01;19.90;;;13.75;;
9160;SDS011;4615;51.340;8.288;2023-10-09T00:43:35;19.30;;;13.75;;
9160;SDS011;4615;51.340;8.288;2023-10-09T00:46:02;20.02;;;13.57;;
9160;SDS011;4615;51.340;8.288;2023-10-09T00:48:33;21.55;;;13.55;;
9160;SDS011;4615;51.340;8.288;2023-10-09T00:51:06;19.67;;;12.40;;
9160;SDS011;4615;51.340;8.288;2023-10-09T00:53:41;17.23;;;12.93;;
9160;SDS011;4615;51.340;8.288;2023-10-09T00:56:08;16.95;;;13.15;;
9160;SDS011;4615;51.340;8.288;2023-10-09T00:58:44;18.05;;;14.00;;
9160;SDS011;4615;51.340;8.288;2023-10-09T01:01:12;18.95;;;14.65;;
9160;SDS011;4615;51.340;8.288;2023-10-09T01:03:41;22.33;;;15.20;;
9160;SDS011;4615;51.340;8.288;2023-10-09T01:06:09;22.60;;;14.68;;
9160;SDS011;4615;51.340;8.288;2023-10-09T01:08:46;19.20;;;15.10;;
9160;SDS011;4615;51.340;8.288;2023-10-09T01:11:21;22.02;;;14.48;;
9160;SDS011;4615;51.340;8.288;2023-10-09T01:13:50;17.88;;;13.20;;
9160;SDS011;4615;51.340;8.288;2023-10-09T01:16:27;14.70;;;11.63;;
9160;SDS011;4615;51.340;8.288;2023-10-09T01:18:56;16.77;;;12.30;;
9160;SDS011;4615;51.340;8.288;2023-10-09T01:21:24;15.73;;;11.85;;
9160;SDS011;4615;51.340;8.288;2023-10-09T01:23:53;18.20;;;13.70;;
9160;SDS011;4615;51.340;8.288;2023-10-09T01:26:29;19.60;;;14.30;;
9160;SDS011;4615;51.340;8.288;2023-10-09T01:28:59;20.50;;;14.45;;
9160;SDS011;4615;51.340;8.288;2023-10-09T01:31:26;19.35;;;14.43;;
9160;SDS011;4615;51.340;8.288;2023-10-09T01:34:08;19.27;;;13.88;;
9160;SDS011;4615;51.340;8.288;2023-10-09T01:36:35;19.20;;;13.63;;
9160;SDS011;4615;51.340;8.288;2023-10-09T01:39:06;20.60;;;14.05;;
9160;SDS011;4615;51.340;8.288;2023-10-09T01:41:35;19.27;;;13.40;;
9160;SDS011;4615;51.340;8.288;2023-10-09T01:44:03;18.73;;;14.32;;
9160;SDS011;4615;51.340;8.288;2023-10-09T01:46:35;18.55;;;13.20;;
9160;SDS011;4615;51.340;8.288;2023-10-09T01:49:01;18.13;;;13.43;;
9160;SDS011;4615;51.340;8.288;2023-10-09T01:51:41;17.65;;;13.10;;
9160;SDS011;4615;51.340;8.288;2023-10-09T01:54:09;17.40;;;12.35;;
9160;SDS011;4615;51.340;8.288;2023-10-09T01:56:41;18.35;;;12.30;;
9160;SDS011;4615;51.340;8.288;2023-10-09T01:59:11;16.38;;;12.52;;
9160;SDS011;4615;51.340;8.288;2023-10-09T02:01:38;18.95;;;13.63;;
9160;SDS011;4615;51.340;8.288;2023-10-09T02:04:13;18.23;;;12.85;;
9160;SDS011;4615;51.340;8.288;2023-10-09T02:06:44;18.05;;;12.65;;
9160;SDS011;4615;51.340;8.288;2023-10-09T02:09:12;15.80;;;11.87;;
9160;SDS011;4615;51.340;8.288;2023-10-09T02:11:47;16.27;;;12.13;;
9160;SDS011;4615;51.340;8.288;2023-10-09T02:14:14;15.50;;;11.90;;
9160;SDS011;4615;51.340;8.288;2023-10-09T02:16:45;16.80;;;12.75;;
9160;SDS011;4615;51.340;8.288;2023-10-09T02:19:27;15.18;;;11.90;;
9160;SDS011;4615;51.340;8.288;2023-10-09T02:21:58;16.10;;;12.25;;
9160;SDS011;4615;51.340;8.288;2023-10-09T02:24:27;15.40;;;12.00;;
9160;SDS011;4615;51.340;8.288;2023-10-09T02:27:15;15.10;;;11.65;;
9160;SDS011;4615;51.340;8.288;2023-10-09T02:29:45;15.32;;;11.50;;
9160;SDS011;4615;51.340;8.288;2023-10-09T02:32:12;14.55;;;11.57;;
9160;SDS011;4615;51.340;8.288;2023-10-09T02:34:50;15.52;;;11.88;;
9160;SDS011;4615;51.340;8.288;2023-10-09T02:37:18;16.02;;;11.40;;
9160;SDS011;4615;51.340;8.288;2023-10-09T02:39:49;14.82;;;11.13;;
9160;SDS011;4615;51.340;8.288;2023-10-09T02:42:17;16.02;;;11.35;;
9160;SDS011;4615;51.340;8.288;2023-10-09T02:44:48;13.27;;;11.63;;
9160;SDS011;4615;51.340;8.288;2023-10-09T02:47:16;15.88;;;11.80;;
9160;SDS011;4615;51.340;8.288;2023-10-09T02:49:45;14.07;;;11.47;;
9160;SDS011;4615;51.340;8.288;2023-10-09T02:52:13;17.38;;;12.15;;
9160;SDS011;4615;51.340;8.288;2023-10-09T02:54:43;17.15;;;12.02;;
9160;SDS011;4615;51.340;8.288;2023-10-09T02:57:13;16.50;;;11.27;;
9160;SDS011;4615;51.340;8.288;2023-10-09T02:59:48;15.20;;;12.10;;
9160;SDS011;4615;51.340;8.288;2023-10-09T03:02:16;16.02;;;12.13;;
9160;SDS011;4615;51.340;8.288;2023-10-09T03:04:45;14.68;;;11.00;;
9160;SDS011;4615;51.340;8.288;2023-10-09T03:07:12;16.63;;;11.48;;
9160;SDS011;4615;51.340;8.288;2023-10-09T03:09:39;15.90;;;11.70;;
9160;SDS011;4615;51.340;8.288;2023-10-09T03:12:06;14.73;;;11.60;;
9160;SDS011;4615;51.340;8.288;2023-10-09T03:14:36;14.77;;;10.95;;
9160;SDS011;4615;51.340;8.288;2023-10-09T03:17:04;16.13;;;12.13;;
9160;SDS011;4615;51.340;8.288;2023-10-09T03:19:32;16.30;;;11.97;;
9160;SDS011;4615;51.340;8.288;2023-10-09T03:22:02;15.43;;;11.55;;
9160;SDS011;4615;51.340;8.288;2023-10-09T03:24:28;15.55;;;11.90;;
9160;SDS011;4615;51.340;8.288;2023-10-09T03:26:56;15.43;;;11.80;;
9160;SDS011;4615;51.340;8.288;2023-10-09T03:29:22;16.90;;;11.70;;
9160;SDS011;4615;51.340;8.288;2023-10-09T03:31:50;15.10;;;11.90;;
9160;SDS011;4615;51.340;8.288;2023-10-09T03:34:16;16.23;;;11.65;;
9160;SDS011;4615;51.340;8.288;2023-10-09T03:36:43;14.40;;;11.17;;
9160;SDS011;4615;51.340;8.288;2023-10-09T03:39:09;16.63;;;11.43;;
9160;SDS011;4615;51.340;8.288;2023-10-09T03:41:49;20.70;;;12.55;;
9160;SDS011;4615;51.340;8.288;2023-10-09T03:44:16;15.68;;;11.85;;
9160;SDS011;4615;51.340;8.288;2023-10-09T03:46:43;22.48;;;14.32;;
9160;SDS011;4615;51.340;8.288;2023-10-09T03:49:11;21.58;;;14.15;;
9160;SDS011;4615;51.340;8.288;2023-10-09T03:51:38;15.73;;;12.63;;
9160;SDS011;4615;51.340;8.288;2023-10-09T03:54:07;17.02;;;12.85;;
9160;SDS011;4615;51.340;8.288;2023-10-09T03:56:33;16.77;;;12.30;;
9160;SDS011;4615;51.340;8.288;2023-10-09T03:59:00;17.90;;;12.20;;
9160;SDS011;4615;51.340;8.288;2023-10-09T04:01:27;15.93;;;11.82;;
9160;SDS011;4615;51.340;8.288;2023-10-09T04:03:54;16.90;;;12.30;;
9160;SDS011;4615;51.340;8.288;2023-10-09T04:06:26;16.67;;;12.13;;
9160;SDS011;4615;51.340;8.288;2023-10-09T04:08:55;14.77;;;11.90;;
9160;SDS011;4615;51.340;8.288;2023-10-09T04:11:23;17.25;;;11.50;;
9160;SDS011;4615;51.340;8.288;2023-10-09T04:13:50;15.10;;;11.23;;
9160;SDS011;4615;51.340;8.288;2023-10-09T04:16:17;18.27;;;12.03;;
9160;SDS011;4615;51.340;8.288;2023-10-09T04:18:58;14.63;;;11.73;;
9160;SDS011;4615;51.340;8.288;2023-10-09T04:21:26;15.55;;;11.20;;
9160;SDS011;4615;51.340;8.288;2023-10-09T04:23:59;17.05;;;11.50;;
9160;SDS011;4615;51.340;8.288;2023-10-09T04:26:34;14.30;;;11.10;;
9160;SDS011;4615;51.340;8.288;2023-10-09T04:29:02;15.55;;;11.25;;
9160;SDS011;4615;51.340;8.288;2023-10-09T04:31:28;14.70;;;10.98;;
9160;SDS011;4615;51.340;8.288;2023-10-09T04:34:02;14.48;;;11.10;;
9160;SDS011;4615;51.340;8.288;2023-10-09T04:36:49;12.27;;;10.35;;
9160;SDS011;4615;51.340;8.288;2023-10-09T04:39:16;13.57;;;10.75;;
9160;SDS011;4615;51.340;8.288;2023-10-09T04:42:00;14.38;;;10.88;;
9160;SDS011;4615;51.340;8.288;2023-10-09T04:44:44;15.50;;;11.00;;
9160;SDS011;4615;51.340;8.288;2023-10-09T04:47:44;16.48;;;11.18;;
9160;SDS011;4615;51.340;8.288;2023-10-09T04:50:23;14.68;;;11.32;;
9160;SDS011;4615;51.340;8.288;2023-10-09T04:53:20;15.05;;;11.40;;
9160;SDS011;4615;51.340;8.288;2023-10-09T04:55:49;14.20;;;10.77;;
9160;SDS011;4615;51.340;8.288;2023-10-09T04:58:22;14.15;;;10.75;;
9160;SDS011;4615;51.340;8.288;2023-10-09T05:00:52;15.77;;;11.07;;
9160;SDS011;4615;51.340;8.288;2023-10-09T05:03:39;14.88;;;11.13;;
9160;SDS011;4615;51.340;8.288;2023-10-09T05:06:17;16.85;;;11.23;;
9160;SDS011;4615;51.340;8.288;2023-10-09T05:08:47;17.13;;;11.73;;
9160;SDS011;4615;51.340;8.288;2023-10-09T05:11:21;13.93;;;10.75;;
9160;SDS011;4615;51.340;8.288;2023-10-09T05:14:01;13.00;;;10.30;;
9160;SDS011;4615;51.340;8.288;2023-10-09T05:16:40;14.05;;;10.90;;
9160;SDS011;4615;51.340;8.288;2023-10-09T05:19:19;17.17;;;11.43;;
9160;SDS011;4615;51.340;8.288;2023-10-09T05:21:58;14.32;;;11.20;;
9160;SDS011;4615;51.340;8.288;2023-10-09T05:24:35;15.63;;;11.52;;
9160;SDS011;4615;51.340;8.288;2023-10-09T05:27:09;15.57;;;11.35;;
9160;SDS011;4615;51.340;8.288;2023-10-09T05:29:43;12.33;;;10.57;;
9160;SDS011;4615;51.340;8.288;2023-10-09T05:32:24;13.07;;;10.88;;
9160;SDS011;4615;51.340;8.288;2023-10-09T05:34:55;13.98;;;10.88;;
9160;SDS011;4615;51.340;8.288;2023-10-09T05:37:40;14.35;;;10.55;;
9160;SDS011;4615;51.340;8.288;2023-10-09T05:40:10;14.32;;;10.18;;
9160;SDS011;4615;51.340;8.288;2023-10-09T05:42:48;13.02;;;10.40;;
9160;SDS011;4615;51.340;8.288;2023-10-09T05:45:23;14.13;;;10.38;;
9160;SDS011;4615;51.340;8.288;2023-10-09T05:48:07;15.80;;;11.00;;
9160;SDS011;4615;51.340;8.288;2023-10-09T05:50:53;14.25;;;10.13;;
9160;SDS011;4615;51.340;8.288;2023-10-09T05:53:37;13.27;;;10.15;;
9160;SDS011;4615;51.340;8.288;2023-10-09T05:56:19;14.55;;;10.65;;
9160;SDS011;4615;51.340;8.288;2023-10-09T05:58:59;12.32;;;10.32;;
9160;SDS011;4615;51.340;8.288;2023-10-09T06:01:43;12.75;;;10.13;;
9160;SDS011;4615;51.340;8.288;2023-10-09T06:04:27;13.38;;;9.70;;
9160;SDS011;4615;51.340;8.288;2023-10-09T06:07:14;13.00;;;10.15;;
9160;SDS011;4615;51.340;8.288;2023-10-09T06:09:48;13.67;;;10.10;;
9160;SDS011;4615;51.340;8.288;2023-10-09T06:12:19;12.10;;;9.23;;
9160;SDS011;4615;51.340;8.288;2023-10-09T06:15:28;12.65;;;9.40;;
9160;SDS011;4615;51.340;8.288;2023-10-09T06:18:16;12.40;;;9.47;;
9160;SDS011;4615;51.340;8.288;2023-10-09T06:20:51;13.23;;;9.95;;
9160;SDS011;4615;51.340;8.288;2023-10-09T06:23:45;13.18;;;9.52;;
9160;SDS011;4615;51.340;8.288;2023-10-09T06:26:31;12.45;;;9.40;;
9160;SDS011;4615;51.340;8.288;2023-10-09T06:28:59;13.23;;;10.02;;
9160;SDS011;4615;51.340;8.288;2023-10-09T06:31:41;12.18;;;9.88;;
9160;SDS011;4615;51.340;8.288;2023-10-09T06:34:26;12.00;;;9.25;;
9160;SDS011;4615;51.340;8.288;2023-10-09T06:36:58;11.45;;;9.77;;
9160;SDS011;4615;51.340;8.288;2023-10-09T06:39:33;12.75;;;10.05;;
9160;SDS011;4615;51.340;8.288;2023-10-09T06:42:32;12.65;;;10.07;;
9160;SDS011;4615;51.340;8.288;2023-10-09T06:45:10;13.15;;;9.80;;
9160;SDS011;4615;51.340;8.288;2023-10-09T06:47:40;13.75;;;10.02;;
9160;SDS011;4615;51.340;8.288;2023-10-09T06:50:07;14.23;;;9.82;;
9160;SDS011;4615;51.340;8.288;2023-10-09T06:52:49;11.98;;;9.80;;
9160;SDS011;4615;51.340;8.288;2023-10-09T06:55:45;11.70;;;9.17;;
9160;SDS011;4615;51.340;8.288;2023-10-09T06:58:14;13.18;;;9.98;;
9160;SDS011;4615;51.340;8.288;2023-10-09T07:00:47;13.23;;;9.50;;
9160;SDS011;4615;51.340;8.288;2023-10-09T07:03:19;12.45;;;9.25;;
9160;SDS011;4615;51.340;8.288;2023-10-09T07:06:02;11.48;;;9.93;;
9160;SDS011;4615;51.340;8.288;2023-10-09T07:08:30;12.13;;;9.60;;
9160;SDS011;4615;51.340;8.288;2023-10-09T07:11:03;11.97;;;9.57;;
9160;SDS011;4615;51.340;8.288;2023-10-09T07:13:43;11.98;;;9.55;;
9160;SDS011;4615;51.340;8.288;2023-10-09T07:16:19;11.82;;;9.10;;
9160;SDS011;4615;51.340;8.288;2023-10-09T07:18:54;11.85;;;8.73;;
9160;SDS011;4615;51.340;8.288;2023-10-09T07:21:20;10.88;;;8.85;;
9160;SDS011;4615;51.340;8.288;2023-10-09T07:23:53;12.02;;;9.25;;
9160;SDS011;4615;51.340;8.288;2023-10-09T07:26:23;12.60;;;9.65;;
9160;SDS011;4615;51.340;8.288;2023-10-09T07:29:02;10.18;;;9.07;;
9160;SDS011;4615;51.340;8.288;2023-10-09T07:31:41;12.05;;;9.55;;
9160;SDS011;4615;51.340;8.288;2023-10-09T07:34:10;11.68;;;9.18;;
9160;SDS011;4615;51.340;8.288;2023-10-09T07:36:50;12.00;;;9.27;;
9160;SDS011;4615;51.340;8.288;2023-10-09T07:39:21;14.85;;;9.98;;
9160;SDS011;4615;51.340;8.288;2023-10-09T07:41:49;12.90;;;9.27;;
9160;SDS011;4615;51.340;8.288;2023-10-09T07:44:29;14.32;;;9.80;;
9160;SDS011;4615;51.340;8.288;2023-10-09T07:47:07;12.50;;;9.77;;
9160;SDS011;4615;51.340;8.288;2023-10-09T07:49:51;13.15;;;9.73;;
9160;SDS011;4615;51.340;8.288;2023-10-09T07:52:24;13.25;;;9.18;;
9160;SDS011;4615;51.340;8.288;2023-10-09T07:54:51;10.55;;;8.75;;
9160;SDS011;4615;51.340;8.288;2023-10-09T07:57:28;10.38;;;8.48;;
9160;SDS011;4615;51.340;8.288;2023-10-09T08:00:03;9.70;;;8.63;;
9160;SDS011;4615;51.340;8.288;2023-10-09T08:02:37;11.93;;;8.98;;
9160;SDS011;4615;51.340;8.288;2023-10-09T08:05:04;10.30;;;8.40;;
9160;SDS011;4615;51.340;8.288;2023-10-09T08:07:32;10.90;;;8.57;;
9160;SDS011;4615;51.340;8.288;2023-10-09T08:10:01;10.75;;;8.55;;
9160;SDS011;4615;51.340;8.288;2023-10-09T08:12:46;10.32;;;8.23;;
9160;SDS011;4615;51.340;8.288;2023-10-09T08:15:25;10.73;;;8.60;;
9160;SDS011;4615;51.340;8.288;2023-10-09T08:17:59;10.77;;;8.48;;
9160;SDS011;4615;51.340;8.288;2023-10-09T08:20:28;10.52;;;8.65;;
9160;SDS011;4615;51.340;8.288;2023-10-09T08:23:01;11.20;;;8.52;;
9160;SDS011;4615;51.340;8.288;2023-10-09T08:25:30;9.63;;;8.00;;
9160;SDS011;4615;51.340;8.288;2023-10-09T08:27:59;10.20;;;8.20;;
9160;SDS011;4615;51.340;8.288;2023-10-09T08:30:40;10.32;;;8.02;;
9160;SDS011;4615;51.340;8.288;2023-10-09T08:33:15;10.27;;;8.18;;
9160;SDS011;4615;51.340;8.288;2023-10-09T08:35:59;10.30;;;8.30;;
9160;SDS011;4615;51.340;8.288;2023-10-09T08:38:30;11.25;;;8.82;;
9160;SDS011;4615;51.340;8.288;2023-10-09T08:41:06;11.15;;;8.73;;
9160;SDS011;4615;51.340;8.288;2023-10-09T08:43:42;11.68;;;8.95;;
9160;SDS011;4615;51.340;8.288;2023-10-09T08:46:12;9.73;;;8.40;;
9160;SDS011;4615;51.340;8.288;2023-10-09T08:48:43;10.90;;;8.60;;
9160;SDS011;4615;51.340;8.288;2023-10-09T08:51:10;10.93;;;8.43;;
9160;SDS011;4615;51.340;8.288;2023-10-09T08:53:36;12.07;;;8.98;;
9160;SDS011;4615;51.340;8.288;2023-10-09T08:56:09;12.63;;;8.73;;
9160;SDS011;4615;51.340;8.288;2023-10-09T08:58:35;10.95;;;8.40;;
9160;SDS011;4615;51.340;8.288;2023-10-09T09:01:04;9.75;;;8.30;;
9160;SDS011;4615;51.340;8.288;2023-10-09T09:03:37;11.87;;;8.70;;
9160;SDS011;4615;51.340;8.288;2023-10-09T09:06:04;10.48;;;8.00;;
9160;SDS011;4615;51.340;8.288;2023-10-09T09:08:31;9.73;;;8.02;;
9160;SDS011;4615;51.340;8.288;2023-10-09T09:11:01;10.95;;;7.78;;
9160;SDS011;4615;51.340;8.288;2023-10-09T09:13:37;10.80;;;7.57;;
9160;SDS011;4615;51.340;8.288;2023-10-09T09:16:06;10.20;;;7.38;;
9160;SDS011;4615;51.340;8.288;2023-10-09T09:18:43;11.65;;;7.80;;
9160;SDS011;4615;51.340;8.288;2023-10-09T09:21:17;9.70;;;7.38;;
9160;SDS011;4615;51.340;8.288;2023-10-09T09:23:52;11.63;;;7.73;;
9160;SDS011;4615;51.340;8.288;2023-10-09T09:26:23;8.55;;;6.63;;
9160;SDS011;4615;51.340;8.288;2023-10-09T09:29:01;8.82;;;6.90;;
9160;SDS011;4615;51.340;8.288;2023-10-09T09:31:31;7.35;;;6.50;;
9160;SDS011;4615;51.340;8.288;2023-10-09T09:34:03;9.18;;;6.68;;
9160;SDS011;4615;51.340;8.288;2023-10-09T09:36:37;8.93;;;6.15;;
9160;SDS011;4615;51.340;8.288;2023-10-09T09:39:18;8.93;;;6.85;;
9160;SDS011;4615;51.340;8.288;2023-10-09T09:41:45;8.93;;;6.27;;
9160;SDS011;4615;51.340;8.288;2023-10-09T09:44:11;9.38;;;7.28;;
9160;SDS011;4615;51.340;8.288;2023-10-09T09:46:44;11.27;;;7.55;;
9160;SDS011;4615;51.340;8.288;2023-10-09T09:49:11;9.90;;;7.50;;
9160;SDS011;4615;51.340;8.288;2023-10-09T09:51:41;9.80;;;7.25;;
9160;SDS011;4615;51.340;8.288;2023-10-09T09:54:11;11.93;;;7.93;;
9160;SDS011;4615;51.340;8.288;2023-10-09T09:56:40;10.20;;;7.53;;
9160;SDS011;4615;51.340;8.288;2023-10-09T09:59:09;10.10;;;7.73;;
9160;SDS011;4615;51.340;8.288;2023-10-09T10:01:39;9.48;;;6.93;;
9160;SDS011;4615;51.340;8.288;2023-10-09T10:04:09;9.32;;;6.55;;
9160;SDS011;4615;51.340;8.288;2023-10-09T10:06:39;8.13;;;6.40;;
9160;SDS011;4615;51.340;8.288;2023-10-09T10:09:09;9.18;;;7.00;;
9160;SDS011;4615;51.340;8.288;2023-10-09T10:11:42;9.10;;;6.60;;
9160;SDS011;4615;51.340;8.288;2023-10-09T10:14:09;8.15;;;6.35;;
9160;SDS011;4615;51.340;8.288;2023-10-09T10:16:44;8.23;;;6.55;;
9160;SDS011;4615;51.340;8.288;2023-10-09T10:22:24;8.45;;;6.32;;
9160;SDS011;4615;51.340;8.288;2023-10-09T10:24:52;9.38;;;6.18;;
9160;SDS011;4615;51.340;8.288;2023-10-09T10:27:18;9.23;;;6.33;;
9160;SDS011;4615;51.340;8.288;2023-10-09T10:32:39;8.73;;;6.00;;
9160;SDS011;4615;51.340;8.288;2023-10-09T10:35:19;7.63;;;5.95;;
9160;SDS011;4615;51.340;8.288;2023-10-09T10:37:47;8.30;;;6.25;;
9160;SDS011;4615;51.340;8.288;2023-10-09T10:40:22;8.93;;;6.45;;
9160;SDS011;4615;51.340;8.288;2023-10-09T10:43:03;10.20;;;6.80;;
9160;SDS011;4615;51.340;8.288;2023-10-09T10:45:38;9.68;;;6.32;;
9160;SDS011;4615;51.340;8.288;2023-10-09T10:48:10;6.90;;;5.85;;
9160;SDS011;4615;51.340;8.288;2023-10-09T10:50:48;8.32;;;6.07;;
9160;SDS011;4615;51.340;8.288;2023-10-09T10:53:18;7.80;;;5.72;;
9160;SDS011;4615;51.340;8.288;2023-10-09T10:55:54;7.30;;;5.85;;
9160;SDS011;4615;51.340;8.288;2023-10-09T10:58:21;8.95;;;5.95;;
9160;SDS011;4615;51.340;8.288;2023-10-09T11:01:00;7.50;;;5.88;;
9160;SDS011;4615;51.340;8.288;2023-10-09T11:03:37;9.23;;;5.65;;
9160;SDS011;4615;51.340;8.288;2023-10-09T11:06:24;6.40;;;5.32;;
9160;SDS011;4615;51.340;8.288;2023-10-09T11:09:02;7.65;;;5.22;;
9160;SDS011;4615;51.340;8.288;2023-10-09T11:11:36;7.53;;;5.25;;
9160;SDS011;4615;51.340;8.288;2023-10-09T11:14:08;8.43;;;4.88;;
9160;SDS011;4615;51.340;8.288;2023-10-09T11:16:39;8.20;;;5.10;;
9160;SDS011;4615;51.340;8.288;2023-10-09T11:19:08;6.40;;;4.50;;
9160;SDS011;4615;51.340;8.288;2023-10-09T11:21:48;7.50;;;4.80;;
9160;SDS011;4615;51.340;8.288;2023-10-09T11:24:20;8.40;;;5.10;;
9160;SDS011;4615;51.340;8.288;2023-10-09T11:26:51;7.25;;;4.60;;
9160;SDS011;4615;51.340;8.288;2023-10-09T11:29:21;5.95;;;4.43;;
9160;SDS011;4615;51.340;8.288;2023-10-09T11:32:15;7.05;;;4.60;;
9160;SDS011;4615;51.340;8.288;2023-10-09T11:34:43;6.53;;;4.78;;
9160;SDS011;4615;51.340;8.288;2023-10-09T11:37:17;7.25;;;4.60;;
9160;SDS011;4615;51.340;8.288;2023-10-09T11:39:58;6.43;;;4.75;;
9160;SDS011;4615;51.340;8.288;2023-10-09T11:42:26;7.35;;;4.68;;
9160;SDS011;4615;51.340;8.288;2023-10-09T11:45:03;7.90;;;4.60;;
9160;SDS011;4615;51.340;8.288;2023-10-09T11:47:44;7.00;;;5.00;;
9160;SDS011;4615;51.340;8.288;2023-10-09T11:50:19;7.43;;;4.93;;
9160;SDS011;4615;51.340;8.288;2023-10-09T11:52:55;6.22;;;4.80;;
9160;SDS011;4615;51.340;8.288;2023-10-09T11:55:36;6.60;;;4.95;;
9160;SDS011;4615;51.340;8.288;2023-10-09T11:58:03;5.90;;;4.93;;
9160;SDS011;4615;51.340;8.288;2023-10-09T12:00:32;6.72;;;4.50;;
9160;SDS011;4615;51.340;8.288;2023-10-09T12:03:09;7.30;;;4.65;;
9160;SDS011;4615;51.340;8.288;2023-10-09T12:05:36;7.40;;;4.95;;
9160;SDS011;4615;51.340;8.288;2023-10-09T12:08:02;8.23;;;5.37;;
9160;SDS011;4615;51.340;8.288;2023-10-09T12:10:33;6.65;;;5.20;;
9160;SDS011;4615;51.340;8.288;2023-10-09T12:13:05;6.97;;;4.97;;
9160;SDS011;4615;51.340;8.288;2023-10-09T12:15:32;10.50;;;5.18;;
9160;SDS011;4615;51.340;8.288;2023-10-09T12:18:04;6.25;;;4.63;;
9160;SDS011;4615;51.340;8.288;2023-10-09T12:20:32;7.67;;;5.03;;
9160;SDS011;4615;51.340;8.288;2023-10-09T12:22:59;9.50;;;5.30;;
9160;SDS011;4615;51.340;8.288;2023-10-09T12:25:25;6.82;;;5.05;;
9160;SDS011;4615;51.340;8.288;2023-10-09T12:27:56;6.85;;;4.97;;
9160;SDS011;4615;51.340;8.288;2023-10-09T12:30:24;6.65;;;4.82;;
9160;SDS011;4615;51.340;8.288;2023-10-09T12:32:53;7.05;;;5.25;;
9160;SDS011;4615;51.340;8.288;2023-10-09T12:35:20;10.02;;;5.65;;
9160;SDS011;4615;51.340;8.288;2023-10-09T12:37:46;5.95;;;4.90;;
9160;SDS011;4615;51.340;8.288;2023-10-09T12:40:14;6.97;;;5.00;;
9160;SDS011;4615;51.340;8.288;2023-10-09T12:42:49;8.07;;;5.30;;
9160;SDS011;4615;51.340;8.288;2023-10-09T12:45:15;7.75;;;5.15;;
9160;SDS011;4615;51.340;8.288;2023-10-09T12:47:44;7.30;;;5.20;;
9160;SDS011;4615;51.340;8.288;2023-10-09T12:50:12;7.53;;;5.07;;
9160;SDS011;4615;51.340;8.288;2023-10-09T12:52:39;7.30;;;5.30;;
9160;SDS011;4615;51.340;8.288;2023-10-09T12:55:05;8.30;;;5.35;;
9160;SDS011;4615;51.340;8.288;2023-10-09T12:57:34;6.82;;;5.03;;
9160;SDS011;4615;51.340;8.288;2023-10-09T13:00:01;8.93;;;5.30;;
9160;SDS011;4615;51.340;8.288;2023-10-09T13:02:35;6.97;;;4.75;;
9160;SDS011;4615;51.340;8.288;2023-10-09T13:05:08;8.07;;;5.35;;
9160;SDS011;4615;51.340;8.288;2023-10-09T13:07:35;7.93;;;5.30;;
9160;SDS011;4615;51.340;8.288;2023-10-09T13:10:02;8.00;;;5.32;;
9160;SDS011;4615;51.340;8.288;2023-10-09T13:12:35;6.53;;;5.10;;
9160;SDS011;4615;51.340;8.288;2023-10-09T13:15:04;8.93;;;5.50;;
9160;SDS011;4615;51.340;8.288;2023-10-09T13:17:34;8.18;;;5.00;;
9160;SDS011;4615;51.340;8.288;2023-10-09T13:20:01;8.50;;;5.30;;
9160;SDS011;4615;51.340;8.288;2023-10-09T13:22:30;7.47;;;5.65;;
9160;SDS011;4615;51.340;8.288;2023-10-09T13:24:57;7.47;;;5.32;;
9160;SDS011;4615;51.340;8.288;2023-10-09T13:27:29;8.20;;;5.72;;
9160;SDS011;4615;51.340;8.288;2023-10-09T13:29:59;7.35;;;5.50;;
9160;SDS011;4615;51.340;8.288;2023-10-09T13:32:30;8.95;;;6.22;;
9160;SDS011;4615;51.340;8.288;2023-10-09T13:34:59;8.40;;;5.90;;
9160;SDS011;4615;51.340;8.288;2023-10-09T13:37:27;9.52;;;5.70;;
9160;SDS011;4615;51.340;8.288;2023-10-09T13:39:57;8.17;;;5.47;;
9160;SDS011;4615;51.340;8.288;2023-10-09T13:42:24;10.55;;;6.32;;
9160;SDS011;4615;51.340;8.288;2023-10-09T13:44:51;7.75;;;5.30;;
9160;SDS011;4615;51.340;8.288;2023-10-09T13:47:19;10.07;;;6.43;;
9160;SDS011;4615;51.340;8.288;2023-10-09T13:49:46;8.88;;;5.80;;
9160;SDS011;4615;51.340;8.288;2023-10-09T13:52:15;9.40;;;6.15;;
9160;SDS011;4615;51.340;8.288;2023-10-09T13:54:48;9.95;;;6.32;;
9160;SDS011;4615;51.340;8.288;2023-10-09T13:57:16;9.40;;;6.25;;
9160;SDS011;4615;51.340;8.288;2023-10-09T13:59:42;10.00;;;6.10;;
9160;SDS011;4615;51.340;8.288;2023-10-09T14:02:14;11.00;;;6.07;;
9160;SDS011;4615;51.340;8.288;2023-10-09T14:04:44;9.02;;;6.18;;
9160;SDS011;4615;51.340;8.288;2023-10-09T14:07:10;10.13;;;6.13;;
9160;SDS011;4615;51.340;8.288;2023-10-09T14:09:42;9.65;;;6.13;;
9160;SDS011;4615;51.340;8.288;2023-10-09T14:12:21;8.50;;;5.90;;
9160;SDS011;4615;51.340;8.288;2023-10-09T14:14:49;9.38;;;6.40;;
9160;SDS011;4615;51.340;8.288;2023-10-09T14:17:20;10.98;;;6.50;;
9160;SDS011;4615;51.340;8.288;2023-10-09T14:19:50;11.85;;;6.00;;
9160;SDS011;4615;51.340;8.288;2023-10-09T14:22:17;9.25;;;6.32;;
9160;SDS011;4615;51.340;8.288;2023-10-09T14:24:43;10.32;;;6.20;;
9160;SDS011;4615;51.340;8.288;2023-10-09T14:27:11;11.70;;;6.45;;
9160;SDS011;4615;51.340;8.288;2023-10-09T14:29:44;9.32;;;6.35;;
9160;SDS011;4615;51.340;8.288;2023-10-09T14:32:10;8.52;;;5.90;;
9160;SDS011;4615;51.340;8.288;2023-10-09T14:34:38;11.25;;;6.38;;
9160;SDS011;4615;51.340;8.288;2023-10-09T14:37:08;12.57;;;6.57;;
9160;SDS011;4615;51.340;8.288;2023-10-09T14:39:37;11.27;;;6.57;;
9160;SDS011;4615;51.340;8.288;2023-10-09T14:42:03;12.63;;;6.32;;
9160;SDS011;4615;51.340;8.288;2023-10-09T14:44:34;9.65;;;6.28;;
9160;SDS011;4615;51.340;8.288;2023-10-09T14:47:04;9.07;;;6.32;;
9160;SDS011;4615;51.340;8.288;2023-10-09T14:49:31;10.70;;;6.40;;
9160;SDS011;4615;51.340;8.288;2023-10-09T14:52:01;10.40;;;6.30;;
9160;SDS011;4615;51.340;8.288;2023-10-09T14:54:27;9.50;;;6.20;;
9160;SDS011;4615;51.340;8.288;2023-10-09T14:56:54;9.18;;;6.05;;
9160;SDS011;4615;51.340;8.288;2023-10-09T14:59:21;10.00;;;6.50;;
9160;SDS011;4615;51.340;8.288;2023-10-09T15:01:48;8.82;;;5.90;;
9160;SDS011;4615;51.340;8.288;2023-10-09T15:04:16;10.55;;;6.25;;
9160;SDS011;4615;51.340;8.288;2023-10-09T15:06:42;10.30;;;6.47;;
9160;SDS011;4615;51.340;8.288;2023-10-09T15:09:13;8.82;;;6.10;;
9160;SDS011;4615;51.340;8.288;2023-10-09T15:11:47;11.07;;;5.90;;
9160;SDS011;4615;51.340;8.288;2023-10-09T15:14:13;8.60;;;5.75;;
9160;SDS011;4615;51.340;8.288;2023-10-09T15:16:41;10.13;;;6.22;;
9160;SDS011;4615;51.340;8.288;2023-10-09T15:19:08;8.80;;;6.00;;
9160;SDS011;4615;51.340;8.288;2023-10-09T15:21:36;8.00;;;5.73;;
9160;SDS011;4615;51.340;8.288;2023-10-09T15:24:09;9.55;;;5.63;;
9160;SDS011;4615;51.340;8.288;2023-10-09T15:26:37;11.95;;;6.20;;
9160;SDS011;4615;51.340;8.288;2023-10-09T15:29:05;8.73;;;5.60;;
9160;SDS011;4615;51.340;8.288;2023-10-09T15:31:32;8.85;;;5.70;;
9160;SDS011;4615;51.340;8.288;2023-10-09T15:33:58;9.93;;;5.63;;
9160;SDS011;4615;51.340;8.288;2023-10-09T15:36:25;9.98;;;5.85;;